sensor_id;sensor_type;location;lat;lon;timestamp;P1;durP1;ratioP1;P2;durP2;ratioP2
19554;SDS011;9924;50.828;6.440;2022-07-26T00:01:18;3.15;;;1.30;;
19554;SDS011;9924;50.828;6.440;2022-07-26T00:03:46;3.00;;;1.08;;
19554;SDS011;9924;50.828;6.440;2022-07-26T00:06:13;6.57;;;1.23;;
19554;SDS011;9924;50.828;6.440;2022-07-26T00:08:39;4.00;;;1.40;;
19554;SDS011;9924;50.828;6.440;2022-07-26T00:11:05;4.20;;;1.10;;
19554;SDS011;9924;50.828;6.440;2022-07-26T00:13:31;5.07;;;1.08;;
19554;SDS011;9924;50.828;6.440;2022-07-26T00:15:57;2.97;;;1.15;;
19554;SDS011;9924;50.828;6.440;2022-07-26T00:18:23;1.42;;;0.80;;
19554;SDS011;9924;50.828;6.440;2022-07-26T00:20:49;2.67;;;1.15;;
19554;SDS011;9924;50.828;6.440;2022-07-26T00:23:14;2.90;;;1.10;;
19554;SDS011;9924;50.828;6.440;2022-07-26T00:25:40;2.58;;;1.00;;
19554;SDS011;9924;50.828;6.440;2022-07-26T00:28:06;1.92;;;0.85;;
19554;SDS011;9924;50.828;6.440;2022-07-26T00:30:32;4.57;;;1.20;;
19554;SDS011;9924;50.828;6.440;2022-07-26T00:32:58;7.32;;;1.20;;
19554;SDS011;9924;50.828;6.440;2022-07-26T00:35:24;3.58;;;1.23;;
19554;SDS011;9924;50.828;6.440;2022-07-26T00:37:50;5.55;;;1.30;;
19554;SDS011;9924;50.828;6.440;2022-07-26T00:40:16;3.38;;;0.88;;
19554;SDS011;9924;50.828;6.440;2022-07-26T00:42:42;1.40;;;0.90;;
19554;SDS011;9924;50.828;6.440;2022-07-26T00:45:09;7.50;;;1.10;;
19554;SDS011;9924;50.828;6.440;2022-07-26T00:47:35;3.20;;;1.02;;
19554;SDS011;9924;50.828;6.440;2022-07-26T00:50:03;5.30;;;1.10;;
19554;SDS011;9924;50.828;6.440;2022-07-26T00:52:30;4.20;;;0.82;;
19554;SDS011;9924;50.828;6.440;2022-07-26T00:54:56;5.05;;;1.27;;
19554;SDS011;9924;50.828;6.440;2022-07-26T00:57:22;4.40;;;1.35;;
19554;SDS011;9924;50.828;6.440;2022-07-26T00:59:48;4.00;;;1.25;;
19554;SDS011;9924;50.828;6.440;2022-07-26T01:02:15;3.88;;;1.20;;
19554;SDS011;9924;50.828;6.440;2022-07-26T01:04:41;5.03;;;1.25;;
19554;SDS011;9924;50.828;6.440;2022-07-26T01:07:09;2.65;;;1.20;;
19554;SDS011;9924;50.828;6.440;2022-07-26T01:09:35;5.25;;;1.15;;
19554;SDS011;9924;50.828;6.440;2022-07-26T01:12:03;3.20;;;1.13;;
19554;SDS011;9924;50.828;6.440;2022-07-26T01:14:29;6.97;;;1.45;;
19554;SDS011;9924;50.828;6.440;2022-07-26T01:16:55;2.83;;;1.13;;
19554;SDS011;9924;50.828;6.440;2022-07-26T01:19:21;4.70;;;1.05;;
19554;SDS011;9924;50.828;6.440;2022-07-26T01:21:47;4.22;;;1.10;;
19554;SDS011;9924;50.828;6.440;2022-07-26T01:24:13;4.03;;;1.08;;
19554;SDS011;9924;50.828;6.440;2022-07-26T01:26:39;4.70;;;1.80;;
19554;SDS011;9924;50.828;6.440;2022-07-26T01:29:05;3.13;;;1.00;;
19554;SDS011;9924;50.828;6.440;2022-07-26T01:31:31;3.20;;;1.30;;
19554;SDS011;9924;50.828;6.440;2022-07-26T01:33:57;8.48;;;1.40;;
19554;SDS011;9924;50.828;6.440;2022-07-26T01:36:23;6.28;;;1.77;;
19554;SDS011;9924;50.828;6.440;2022-07-26T01:38:49;4.68;;;1.50;;
19554;SDS011;9924;50.828;6.440;2022-07-26T01:41:15;8.90;;;1.70;;
19554;SDS011;9924;50.828;6.440;2022-07-26T01:43:40;14.10;;;2.15;;
19554;SDS011;9924;50.828;6.440;2022-07-26T01:46:07;9.38;;;1.90;;
19554;SDS011;9924;50.828;6.440;2022-07-26T01:48:33;5.25;;;1.70;;
19554;SDS011;9924;50.828;6.440;2022-07-26T01:51:00;8.68;;;1.50;;
19554;SDS011;9924;50.828;6.440;2022-07-26T01:53:27;4.18;;;1.25;;
19554;SDS011;9924;50.828;6.440;2022-07-26T01:55:53;3.13;;;1.33;;
19554;SDS011;9924;50.828;6.440;2022-07-26T01:58:18;5.32;;;1.20;;
19554;SDS011;9924;50.828;6.440;2022-07-26T02:00:44;5.35;;;1.55;;
19554;SDS011;9924;50.828;6.440;2022-07-26T02:03:10;3.20;;;1.42;;
19554;SDS011;9924;50.828;6.440;2022-07-26T02:05:36;3.78;;;1.55;;
19554;SDS011;9924;50.828;6.440;2022-07-26T02:08:02;5.57;;;1.77;;
19554;SDS011;9924;50.828;6.440;2022-07-26T02:10:27;7.95;;;1.95;;
19554;SDS011;9924;50.828;6.440;2022-07-26T02:13:12;8.45;;;1.80;;
19554;SDS011;9924;50.828;6.440;2022-07-26T02:15:38;4.78;;;1.63;;
19554;SDS011;9924;50.828;6.440;2022-07-26T02:18:04;7.22;;;1.90;;
19554;SDS011;9924;50.828;6.440;2022-07-26T02:20:30;9.73;;;2.55;;
19554;SDS011;9924;50.828;6.440;2022-07-26T02:22:57;6.82;;;1.88;;
19554;SDS011;9924;50.828;6.440;2022-07-26T02:25:27;7.07;;;1.63;;
19554;SDS011;9924;50.828;6.440;2022-07-26T02:27:53;4.20;;;1.70;;
19554;SDS011;9924;50.828;6.440;2022-07-26T02:30:18;6.25;;;2.33;;
19554;SDS011;9924;50.828;6.440;2022-07-26T02:32:44;9.93;;;2.10;;
19554;SDS011;9924;50.828;6.440;2022-07-26T02:35:11;5.78;;;2.30;;
19554;SDS011;9924;50.828;6.440;2022-07-26T02:37:37;5.88;;;1.92;;
19554;SDS011;9924;50.828;6.440;2022-07-26T02:40:04;4.47;;;1.92;;
19554;SDS011;9924;50.828;6.440;2022-07-26T02:42:31;7.28;;;2.05;;
19554;SDS011;9924;50.828;6.440;2022-07-26T02:44:57;7.15;;;2.10;;
19554;SDS011;9924;50.828;6.440;2022-07-26T02:47:22;15.48;;;2.63;;
19554;SDS011;9924;50.828;6.440;2022-07-26T02:49:48;4.45;;;2.05;;
19554;SDS011;9924;50.828;6.440;2022-07-26T02:52:14;5.78;;;1.88;;
19554;SDS011;9924;50.828;6.440;2022-07-26T02:54:40;2.95;;;1.67;;
19554;SDS011;9924;50.828;6.440;2022-07-26T02:57:05;6.63;;;1.67;;
19554;SDS011;9924;50.828;6.440;2022-07-26T02:59:31;6.50;;;1.77;;
19554;SDS011;9924;50.828;6.440;2022-07-26T03:01:58;6.95;;;2.03;;
19554;SDS011;9924;50.828;6.440;2022-07-26T03:04:23;9.05;;;2.28;;
19554;SDS011;9924;50.828;6.440;2022-07-26T03:06:49;5.47;;;1.85;;
19554;SDS011;9924;50.828;6.440;2022-07-26T03:09:15;7.07;;;1.70;;
19554;SDS011;9924;50.828;6.440;2022-07-26T03:11:41;6.80;;;2.17;;
19554;SDS011;9924;50.828;6.440;2022-07-26T03:14:07;7.88;;;2.17;;
19554;SDS011;9924;50.828;6.440;2022-07-26T03:16:32;6.13;;;1.92;;
19554;SDS011;9924;50.828;6.440;2022-07-26T03:18:59;5.85;;;3.10;;
19554;SDS011;9924;50.828;6.440;2022-07-26T03:21:26;7.15;;;2.60;;
19554;SDS011;9924;50.828;6.440;2022-07-26T03:23:52;5.95;;;2.33;;
19554;SDS011;9924;50.828;6.440;2022-07-26T03:26:18;10.15;;;2.60;;
19554;SDS011;9924;50.828;6.440;2022-07-26T03:28:44;7.93;;;2.58;;
19554;SDS011;9924;50.828;6.440;2022-07-26T03:31:13;9.70;;;2.72;;
19554;SDS011;9924;50.828;6.440;2022-07-26T03:33:39;10.02;;;2.78;;
19554;SDS011;9924;50.828;6.440;2022-07-26T03:36:05;6.70;;;3.08;;
19554;SDS011;9924;50.828;6.440;2022-07-26T03:38:31;9.45;;;3.95;;
19554;SDS011;9924;50.828;6.440;2022-07-26T03:40:57;6.70;;;2.90;;
19554;SDS011;9924;50.828;6.440;2022-07-26T03:43:23;10.32;;;2.72;;
19554;SDS011;9924;50.828;6.440;2022-07-26T03:45:49;12.57;;;3.17;;
19554;SDS011;9924;50.828;6.440;2022-07-26T03:48:15;6.32;;;2.60;;
19554;SDS011;9924;50.828;6.440;2022-07-26T03:50:41;9.10;;;2.80;;
19554;SDS011;9924;50.828;6.440;2022-07-26T03:53:07;8.30;;;2.60;;
19554;SDS011;9924;50.828;6.440;2022-07-26T03:55:33;7.07;;;2.72;;
19554;SDS011;9924;50.828;6.440;2022-07-26T03:58:17;10.02;;;3.00;;
19554;SDS011;9924;50.828;6.440;2022-07-26T04:00:43;6.25;;;3.15;;
19554;SDS011;9924;50.828;6.440;2022-07-26T04:03:10;11.57;;;3.00;;
19554;SDS011;9924;50.828;6.440;2022-07-26T04:05:36;7.72;;;2.47;;
19554;SDS011;9924;50.828;6.440;2022-07-26T04:08:02;6.85;;;2.95;;
19554;SDS011;9924;50.828;6.440;2022-07-26T04:10:28;8.95;;;3.00;;
19554;SDS011;9924;50.828;6.440;2022-07-26T04:12:54;6.20;;;2.90;;
19554;SDS011;9924;50.828;6.440;2022-07-26T04:15:19;10.15;;;3.85;;
19554;SDS011;9924;50.828;6.440;2022-07-26T04:17:45;8.48;;;3.17;;
19554;SDS011;9924;50.828;6.440;2022-07-26T04:20:14;11.57;;;3.35;;
19554;SDS011;9924;50.828;6.440;2022-07-26T04:22:40;12.50;;;3.58;;
19554;SDS011;9924;50.828;6.440;2022-07-26T04:25:07;10.25;;;3.85;;
19554;SDS011;9924;50.828;6.440;2022-07-26T04:27:34;9.10;;;3.25;;
19554;SDS011;9924;50.828;6.440;2022-07-26T04:30:00;10.15;;;3.50;;
19554;SDS011;9924;50.828;6.440;2022-07-26T04:32:26;10.65;;;3.47;;
19554;SDS011;9924;50.828;6.440;2022-07-26T04:34:52;12.73;;;4.15;;
19554;SDS011;9924;50.828;6.440;2022-07-26T04:37:18;12.38;;;4.35;;
19554;SDS011;9924;50.828;6.440;2022-07-26T04:39:43;13.57;;;5.15;;
19554;SDS011;9924;50.828;6.440;2022-07-26T04:42:09;14.95;;;4.00;;
19554;SDS011;9924;50.828;6.440;2022-07-26T04:44:36;10.32;;;4.88;;
19554;SDS011;9924;50.828;6.440;2022-07-26T04:47:02;18.98;;;4.50;;
19554;SDS011;9924;50.828;6.440;2022-07-26T04:49:28;9.70;;;4.40;;
19554;SDS011;9924;50.828;6.440;2022-07-26T04:51:54;10.10;;;4.55;;
19554;SDS011;9924;50.828;6.440;2022-07-26T04:54:20;12.50;;;4.60;;
19554;SDS011;9924;50.828;6.440;2022-07-26T04:56:47;12.23;;;3.95;;
19554;SDS011;9924;50.828;6.440;2022-07-26T04:59:13;13.20;;;4.20;;
19554;SDS011;9924;50.828;6.440;2022-07-26T05:01:39;12.25;;;4.22;;
19554;SDS011;9924;50.828;6.440;2022-07-26T05:04:05;14.68;;;4.10;;
19554;SDS011;9924;50.828;6.440;2022-07-26T05:06:31;11.02;;;4.47;;
19554;SDS011;9924;50.828;6.440;2022-07-26T05:08:59;18.02;;;5.03;;
19554;SDS011;9924;50.828;6.440;2022-07-26T05:11:24;31.35;;;5.47;;
19554;SDS011;9924;50.828;6.440;2022-07-26T05:13:50;15.27;;;5.68;;
19554;SDS011;9924;50.828;6.440;2022-07-26T05:16:16;12.88;;;5.82;;
19554;SDS011;9924;50.828;6.440;2022-07-26T05:18:42;16.48;;;6.63;;
19554;SDS011;9924;50.828;6.440;2022-07-26T05:21:08;15.55;;;6.88;;
19554;SDS011;9924;50.828;6.440;2022-07-26T05:23:34;17.23;;;7.97;;
19554;SDS011;9924;50.828;6.440;2022-07-26T05:26:00;15.80;;;7.55;;
19554;SDS011;9924;50.828;6.440;2022-07-26T05:28:26;16.77;;;7.35;;
19554;SDS011;9924;50.828;6.440;2022-07-26T05:30:52;15.57;;;8.32;;
19554;SDS011;9924;50.828;6.440;2022-07-26T05:33:17;20.58;;;8.23;;
19554;SDS011;9924;50.828;6.440;2022-07-26T05:35:43;18.45;;;7.22;;
19554;SDS011;9924;50.828;6.440;2022-07-26T05:38:10;16.48;;;7.35;;
19554;SDS011;9924;50.828;6.440;2022-07-26T05:40:36;19.13;;;7.63;;
19554;SDS011;9924;50.828;6.440;2022-07-26T05:43:02;11.90;;;6.93;;
19554;SDS011;9924;50.828;6.440;2022-07-26T05:45:28;21.70;;;7.38;;
19554;SDS011;9924;50.828;6.440;2022-07-26T05:47:54;18.92;;;7.80;;
19554;SDS011;9924;50.828;6.440;2022-07-26T05:50:20;15.85;;;6.63;;
19554;SDS011;9924;50.828;6.440;2022-07-26T05:52:46;18.70;;;8.10;;
19554;SDS011;9924;50.828;6.440;2022-07-26T05:55:12;14.13;;;7.47;;
19554;SDS011;9924;50.828;6.440;2022-07-26T05:57:38;14.95;;;7.38;;
19554;SDS011;9924;50.828;6.440;2022-07-26T06:00:11;15.77;;;6.95;;
19554;SDS011;9924;50.828;6.440;2022-07-26T06:02:38;19.25;;;7.65;;
19554;SDS011;9924;50.828;6.440;2022-07-26T06:05:05;19.05;;;7.18;;
19554;SDS011;9924;50.828;6.440;2022-07-26T06:07:32;18.23;;;7.75;;
19554;SDS011;9924;50.828;6.440;2022-07-26T06:09:57;19.90;;;6.80;;
19554;SDS011;9924;50.828;6.440;2022-07-26T06:12:23;17.65;;;7.55;;
19554;SDS011;9924;50.828;6.440;2022-07-26T06:14:49;16.25;;;8.13;;
19554;SDS011;9924;50.828;6.440;2022-07-26T06:17:15;16.73;;;7.38;;
19554;SDS011;9924;50.828;6.440;2022-07-26T06:19:41;19.58;;;7.55;;
19554;SDS011;9924;50.828;6.440;2022-07-26T06:22:07;21.67;;;9.38;;
19554;SDS011;9924;50.828;6.440;2022-07-26T06:24:33;17.08;;;8.45;;
19554;SDS011;9924;50.828;6.440;2022-07-26T06:26:59;18.45;;;7.75;;
19554;SDS011;9924;50.828;6.440;2022-07-26T06:29:25;12.13;;;7.35;;
19554;SDS011;9924;50.828;6.440;2022-07-26T06:31:51;18.88;;;7.68;;
19554;SDS011;9924;50.828;6.440;2022-07-26T06:34:16;13.82;;;7.95;;
19554;SDS011;9924;50.828;6.440;2022-07-26T06:36:43;15.82;;;7.53;;
19554;SDS011;9924;50.828;6.440;2022-07-26T06:39:10;11.35;;;6.95;;
19554;SDS011;9924;50.828;6.440;2022-07-26T06:41:37;15.23;;;7.95;;
19554;SDS011;9924;50.828;6.440;2022-07-26T06:44:03;17.83;;;9.02;;
19554;SDS011;9924;50.828;6.440;2022-07-26T06:46:30;13.75;;;7.70;;
19554;SDS011;9924;50.828;6.440;2022-07-26T06:48:56;19.42;;;8.13;;
19554;SDS011;9924;50.828;6.440;2022-07-26T06:51:22;10.43;;;7.20;;
19554;SDS011;9924;50.828;6.440;2022-07-26T06:53:48;12.80;;;8.38;;
19554;SDS011;9924;50.828;6.440;2022-07-26T06:56:18;19.70;;;9.68;;
19554;SDS011;9924;50.828;6.440;2022-07-26T06:58:44;21.23;;;8.90;;
19554;SDS011;9924;50.828;6.440;2022-07-26T07:01:10;17.75;;;9.60;;
19554;SDS011;9924;50.828;6.440;2022-07-26T07:03:36;20.27;;;9.70;;
19554;SDS011;9924;50.828;6.440;2022-07-26T07:06:02;22.10;;;10.10;;
19554;SDS011;9924;50.828;6.440;2022-07-26T07:08:28;16.83;;;10.02;;
19554;SDS011;9924;50.828;6.440;2022-07-26T07:10:54;22.27;;;10.85;;
19554;SDS011;9924;50.828;6.440;2022-07-26T07:13:20;14.65;;;9.93;;
19554;SDS011;9924;50.828;6.440;2022-07-26T07:15:47;21.35;;;10.38;;
19554;SDS011;9924;50.828;6.440;2022-07-26T07:18:12;22.83;;;10.65;;
19554;SDS011;9924;50.828;6.440;2022-07-26T07:20:39;22.80;;;11.05;;
19554;SDS011;9924;50.828;6.440;2022-07-26T07:23:06;23.42;;;11.60;;
19554;SDS011;9924;50.828;6.440;2022-07-26T07:25:32;26.20;;;12.32;;
19554;SDS011;9924;50.828;6.440;2022-07-26T07:27:58;22.08;;;11.50;;
19554;SDS011;9924;50.828;6.440;2022-07-26T07:30:25;30.38;;;12.50;;
19554;SDS011;9924;50.828;6.440;2022-07-26T07:32:51;21.98;;;12.50;;
19554;SDS011;9924;50.828;6.440;2022-07-26T07:35:18;23.30;;;12.63;;
19554;SDS011;9924;50.828;6.440;2022-07-26T07:37:44;25.58;;;13.00;;
19554;SDS011;9924;50.828;6.440;2022-07-26T07:40:10;30.20;;;13.45;;
19554;SDS011;9924;50.828;6.440;2022-07-26T07:42:36;26.33;;;13.02;;
19554;SDS011;9924;50.828;6.440;2022-07-26T07:45:03;28.42;;;12.32;;
19554;SDS011;9924;50.828;6.440;2022-07-26T07:47:32;26.85;;;13.63;;
19554;SDS011;9924;50.828;6.440;2022-07-26T07:49:58;29.75;;;14.38;;
19554;SDS011;9924;50.828;6.440;2022-07-26T07:52:24;27.55;;;13.10;;
19554;SDS011;9924;50.828;6.440;2022-07-26T07:54:51;28.35;;;13.80;;
19554;SDS011;9924;50.828;6.440;2022-07-26T07:57:16;26.08;;;12.52;;
19554;SDS011;9924;50.828;6.440;2022-07-26T07:59:44;29.98;;;12.88;;
19554;SDS011;9924;50.828;6.440;2022-07-26T08:02:10;23.95;;;12.82;;
19554;SDS011;9924;50.828;6.440;2022-07-26T08:04:38;25.88;;;12.20;;
19554;SDS011;9924;50.828;6.440;2022-07-26T08:07:03;22.42;;;12.30;;
19554;SDS011;9924;50.828;6.440;2022-07-26T08:09:29;24.33;;;11.18;;
19554;SDS011;9924;50.828;6.440;2022-07-26T08:11:55;20.15;;;12.13;;
19554;SDS011;9924;50.828;6.440;2022-07-26T08:14:20;19.90;;;11.43;;
19554;SDS011;9924;50.828;6.440;2022-07-26T08:16:47;21.00;;;10.70;;
19554;SDS011;9924;50.828;6.440;2022-07-26T08:19:12;21.52;;;10.95;;
19554;SDS011;9924;50.828;6.440;2022-07-26T08:21:38;20.83;;;11.15;;
19554;SDS011;9924;50.828;6.440;2022-07-26T08:24:09;21.83;;;10.40;;
19554;SDS011;9924;50.828;6.440;2022-07-26T08:26:36;24.65;;;11.23;;
19554;SDS011;9924;50.828;6.440;2022-07-26T08:29:02;19.45;;;11.32;;
19554;SDS011;9924;50.828;6.440;2022-07-26T08:31:27;20.08;;;10.98;;
19554;SDS011;9924;50.828;6.440;2022-07-26T08:33:53;15.95;;;10.40;;
19554;SDS011;9924;50.828;6.440;2022-07-26T08:36:19;18.60;;;10.38;;
19554;SDS011;9924;50.828;6.440;2022-07-26T08:38:45;23.70;;;10.95;;
19554;SDS011;9924;50.828;6.440;2022-07-26T08:41:11;20.63;;;9.63;;
19554;SDS011;9924;50.828;6.440;2022-07-26T08:43:37;15.75;;;8.88;;
19554;SDS011;9924;50.828;6.440;2022-07-26T08:46:03;17.27;;;9.20;;
19554;SDS011;9924;50.828;6.440;2022-07-26T08:48:29;15.77;;;8.85;;
19554;SDS011;9924;50.828;6.440;2022-07-26T08:50:55;13.90;;;8.63;;
19554;SDS011;9924;50.828;6.440;2022-07-26T08:53:22;14.30;;;8.27;;
19554;SDS011;9924;50.828;6.440;2022-07-26T08:55:48;15.82;;;7.78;;
19554;SDS011;9924;50.828;6.440;2022-07-26T08:58:13;13.10;;;7.88;;
19554;SDS011;9924;50.828;6.440;2022-07-26T09:00:39;13.02;;;8.07;;
19554;SDS011;9924;50.828;6.440;2022-07-26T09:03:07;16.38;;;8.50;;
19554;SDS011;9924;50.828;6.440;2022-07-26T09:05:48;17.83;;;8.10;;
19554;SDS011;9924;50.828;6.440;2022-07-26T09:08:24;17.33;;;8.35;;
19554;SDS011;9924;50.828;6.440;2022-07-26T09:10:51;16.35;;;9.40;;
19554;SDS011;9924;50.828;6.440;2022-07-26T09:13:18;14.60;;;9.50;;
19554;SDS011;9924;50.828;6.440;2022-07-26T09:15:44;14.70;;;10.20;;
19554;SDS011;9924;50.828;6.440;2022-07-26T09:18:26;20.05;;;11.55;;
19554;SDS011;9924;50.828;6.440;2022-07-26T09:20:53;18.98;;;11.70;;
19554;SDS011;9924;50.828;6.440;2022-07-26T09:23:19;15.18;;;10.30;;
19554;SDS011;9924;50.828;6.440;2022-07-26T09:25:45;18.77;;;11.75;;
19554;SDS011;9924;50.828;6.440;2022-07-26T09:28:21;17.20;;;11.35;;
19554;SDS011;9924;50.828;6.440;2022-07-26T09:31:03;22.00;;;10.43;;
19554;SDS011;9924;50.828;6.440;2022-07-26T09:33:45;16.40;;;9.43;;
19554;SDS011;9924;50.828;6.440;2022-07-26T09:36:12;16.10;;;9.15;;
19554;SDS011;9924;50.828;6.440;2022-07-26T09:38:39;14.68;;;9.27;;
19554;SDS011;9924;50.828;6.440;2022-07-26T09:41:22;16.85;;;9.40;;
19554;SDS011;9924;50.828;6.440;2022-07-26T09:43:57;12.60;;;8.52;;
19554;SDS011;9924;50.828;6.440;2022-07-26T09:46:27;13.95;;;9.40;;
19554;SDS011;9924;50.828;6.440;2022-07-26T09:48:54;16.00;;;9.68;;
19554;SDS011;9924;50.828;6.440;2022-07-26T09:54:32;15.63;;;10.77;;
19554;SDS011;9924;50.828;6.440;2022-07-26T09:56:59;17.75;;;10.52;;
19554;SDS011;9924;50.828;6.440;2022-07-26T09:59:26;16.98;;;10.43;;
19554;SDS011;9924;50.828;6.440;2022-07-26T10:01:53;14.10;;;9.63;;
19554;SDS011;9924;50.828;6.440;2022-07-26T10:04:21;14.82;;;9.05;;
19554;SDS011;9924;50.828;6.440;2022-07-26T10:06:48;13.68;;;8.70;;
19554;SDS011;9924;50.828;6.440;2022-07-26T10:09:14;12.95;;;8.35;;
19554;SDS011;9924;50.828;6.440;2022-07-26T10:11:49;11.10;;;7.40;;
19554;SDS011;9924;50.828;6.440;2022-07-26T10:16:57;10.95;;;7.13;;
19554;SDS011;9924;50.828;6.440;2022-07-26T10:20:37;13.52;;;8.07;;
19554;SDS011;9924;50.828;6.440;2022-07-26T10:22:32;10.68;;;7.55;;
19554;SDS011;9924;50.828;6.440;2022-07-26T10:27:46;7.28;;;5.72;;
19554;SDS011;9924;50.828;6.440;2022-07-26T10:38:00;12.55;;;7.97;;
19554;SDS011;9924;50.828;6.440;2022-07-26T10:40:26;14.68;;;8.90;;
19554;SDS011;9924;50.828;6.440;2022-07-26T10:43:11;14.27;;;8.65;;
19554;SDS011;9924;50.828;6.440;2022-07-26T10:45:38;13.77;;;8.93;;
19554;SDS011;9924;50.828;6.440;2022-07-26T10:50:42;9.45;;;7.82;;
19554;SDS011;9924;50.828;6.440;2022-07-26T10:53:14;8.55;;;6.57;;
19554;SDS011;9924;50.828;6.440;2022-07-26T10:55:52;12.38;;;6.30;;
19554;SDS011;9924;50.828;6.440;2022-07-26T10:58:23;10.23;;;4.80;;
19554;SDS011;9924;50.828;6.440;2022-07-26T11:00:54;9.02;;;4.72;;
19554;SDS011;9924;50.828;6.440;2022-07-26T11:03:37;12.05;;;6.00;;
19554;SDS011;9924;50.828;6.440;2022-07-26T11:08:37;7.70;;;5.15;;
19554;SDS011;9924;50.828;6.440;2022-07-26T11:11:03;9.80;;;5.00;;
19554;SDS011;9924;50.828;6.440;2022-07-26T11:13:30;6.80;;;4.47;;
19554;SDS011;9924;50.828;6.440;2022-07-26T11:15:58;5.05;;;3.13;;
19554;SDS011;9924;50.828;6.440;2022-07-26T11:18:28;4.82;;;1.88;;
19554;SDS011;9924;50.828;6.440;2022-07-26T11:21:11;5.40;;;2.13;;
19554;SDS011;9924;50.828;6.440;2022-07-26T11:23:40;3.97;;;2.38;;
19554;SDS011;9924;50.828;6.440;2022-07-26T11:31:09;7.70;;;4.30;;
19554;SDS011;9924;50.828;6.440;2022-07-26T11:33:36;7.60;;;3.88;;
19554;SDS011;9924;50.828;6.440;2022-07-26T11:36:03;6.50;;;4.20;;
19554;SDS011;9924;50.828;6.440;2022-07-26T11:41:21;8.75;;;4.20;;
19554;SDS011;9924;50.828;6.440;2022-07-26T11:43:48;6.82;;;4.25;;
19554;SDS011;9924;50.828;6.440;2022-07-26T11:46:15;5.45;;;4.10;;
19554;SDS011;9924;50.828;6.440;2022-07-26T11:48:48;5.72;;;4.00;;
19554;SDS011;9924;50.828;6.440;2022-07-26T11:51:19;8.40;;;5.05;;
19554;SDS011;9924;50.828;6.440;2022-07-26T11:53:46;8.68;;;4.20;;
19554;SDS011;9924;50.828;6.440;2022-07-26T11:56:16;6.13;;;4.32;;
19554;SDS011;9924;50.828;6.440;2022-07-26T11:58:44;6.72;;;3.30;;
19554;SDS011;9924;50.828;6.440;2022-07-26T12:01:11;8.95;;;4.18;;
19554;SDS011;9924;50.828;6.440;2022-07-26T12:03:40;7.05;;;4.07;;
19554;SDS011;9924;50.828;6.440;2022-07-26T12:06:08;7.85;;;3.88;;
19554;SDS011;9924;50.828;6.440;2022-07-26T12:08:43;6.00;;;4.18;;
19554;SDS011;9924;50.828;6.440;2022-07-26T12:11:11;9.27;;;4.85;;
19554;SDS011;9924;50.828;6.440;2022-07-26T12:13:51;6.57;;;4.20;;
19554;SDS011;9924;50.828;6.440;2022-07-26T12:19:05;7.90;;;3.40;;
19554;SDS011;9924;50.828;6.440;2022-07-26T12:21:36;9.98;;;3.60;;
19554;SDS011;9924;50.828;6.440;2022-07-26T12:24:02;5.20;;;2.80;;
19554;SDS011;9924;50.828;6.440;2022-07-26T12:26:29;6.85;;;3.33;;
19554;SDS011;9924;50.828;6.440;2022-07-26T12:28:56;5.85;;;3.00;;
19554;SDS011;9924;50.828;6.440;2022-07-26T12:31:27;7.85;;;3.33;;
19554;SDS011;9924;50.828;6.440;2022-07-26T12:33:58;7.88;;;3.13;;
19554;SDS011;9924;50.828;6.440;2022-07-26T12:36:24;7.22;;;2.83;;
19554;SDS011;9924;50.828;6.440;2022-07-26T12:38:50;5.53;;;2.90;;
19554;SDS011;9924;50.828;6.440;2022-07-26T12:41:38;5.03;;;2.45;;
19554;SDS011;9924;50.828;6.440;2022-07-26T12:44:04;6.85;;;3.33;;
19554;SDS011;9924;50.828;6.440;2022-07-26T12:46:32;4.82;;;3.08;;
19554;SDS011;9924;50.828;6.440;2022-07-26T12:48:59;5.63;;;2.67;;
19554;SDS011;9924;50.828;6.440;2022-07-26T12:51:25;4.10;;;1.95;;
19554;SDS011;9924;50.828;6.440;2022-07-26T12:53:51;5.15;;;1.73;;
19554;SDS011;9924;50.828;6.440;2022-07-26T12:56:17;5.57;;;2.42;;
19554;SDS011;9924;50.828;6.440;2022-07-26T12:58:43;7.80;;;1.80;;
19554;SDS011;9924;50.828;6.440;2022-07-26T13:01:09;4.75;;;1.90;;
19554;SDS011;9924;50.828;6.440;2022-07-26T13:03:35;5.18;;;2.42;;
19554;SDS011;9924;50.828;6.440;2022-07-26T13:06:01;7.55;;;2.17;;
19554;SDS011;9924;50.828;6.440;2022-07-26T13:08:27;4.90;;;1.83;;
19554;SDS011;9924;50.828;6.440;2022-07-26T13:10:54;6.13;;;1.80;;
19554;SDS011;9924;50.828;6.440;2022-07-26T13:13:19;3.30;;;1.60;;
19554;SDS011;9924;50.828;6.440;2022-07-26T13:15:45;2.13;;;1.25;;
19554;SDS011;9924;50.828;6.440;2022-07-26T13:18:11;2.42;;;1.20;;
19554;SDS011;9924;50.828;6.440;2022-07-26T13:20:38;6.53;;;1.60;;
19554;SDS011;9924;50.828;6.440;2022-07-26T13:23:04;3.65;;;1.50;;
19554;SDS011;9924;50.828;6.440;2022-07-26T13:25:35;4.32;;;1.40;;
19554;SDS011;9924;50.828;6.440;2022-07-26T13:28:01;6.13;;;1.45;;
19554;SDS011;9924;50.828;6.440;2022-07-26T13:30:27;5.40;;;1.35;;
19554;SDS011;9924;50.828;6.440;2022-07-26T13:32:53;12.18;;;2.83;;
19554;SDS011;9924;50.828;6.440;2022-07-26T13:35:19;6.68;;;1.80;;
19554;SDS011;9924;50.828;6.440;2022-07-26T13:37:44;5.07;;;1.73;;
19554;SDS011;9924;50.828;6.440;2022-07-26T13:40:10;5.50;;;1.33;;
19554;SDS011;9924;50.828;6.440;2022-07-26T13:42:36;2.70;;;0.90;;
19554;SDS011;9924;50.828;6.440;2022-07-26T13:45:03;4.63;;;1.27;;
19554;SDS011;9924;50.828;6.440;2022-07-26T13:47:30;5.13;;;1.50;;
19554;SDS011;9924;50.828;6.440;2022-07-26T13:49:56;2.50;;;1.60;;
19554;SDS011;9924;50.828;6.440;2022-07-26T13:52:22;15.25;;;2.72;;
19554;SDS011;9924;50.828;6.440;2022-07-26T13:54:48;12.10;;;2.13;;
19554;SDS011;9924;50.828;6.440;2022-07-26T13:57:14;10.10;;;2.90;;
19554;SDS011;9924;50.828;6.440;2022-07-26T13:59:39;3.63;;;2.05;;
19554;SDS011;9924;50.828;6.440;2022-07-26T14:02:05;5.80;;;2.47;;
19554;SDS011;9924;50.828;6.440;2022-07-26T14:04:32;8.32;;;2.60;;
19554;SDS011;9924;50.828;6.440;2022-07-26T14:06:58;8.93;;;2.83;;
19554;SDS011;9924;50.828;6.440;2022-07-26T14:09:24;6.57;;;2.50;;
19554;SDS011;9924;50.828;6.440;2022-07-26T14:11:49;6.82;;;2.38;;
19554;SDS011;9924;50.828;6.440;2022-07-26T14:14:16;6.55;;;2.47;;
19554;SDS011;9924;50.828;6.440;2022-07-26T14:16:42;6.65;;;2.20;;
19554;SDS011;9924;50.828;6.440;2022-07-26T14:19:08;4.38;;;2.20;;
19554;SDS011;9924;50.828;6.440;2022-07-26T14:21:34;7.00;;;2.03;;
19554;SDS011;9924;50.828;6.440;2022-07-26T14:24:02;4.82;;;2.50;;
19554;SDS011;9924;50.828;6.440;2022-07-26T14:26:28;3.30;;;2.08;;
19554;SDS011;9924;50.828;6.440;2022-07-26T14:28:54;3.55;;;2.30;;
19554;SDS011;9924;50.828;6.440;2022-07-26T14:31:20;3.28;;;2.28;;
19554;SDS011;9924;50.828;6.440;2022-07-26T14:33:46;2.40;;;1.90;;
19554;SDS011;9924;50.828;6.440;2022-07-26T14:36:12;4.28;;;2.20;;
19554;SDS011;9924;50.828;6.440;2022-07-26T14:38:38;5.68;;;1.77;;
19554;SDS011;9924;50.828;6.440;2022-07-26T14:41:05;3.45;;;2.20;;
19554;SDS011;9924;50.828;6.440;2022-07-26T14:43:32;7.22;;;2.47;;
19554;SDS011;9924;50.828;6.440;2022-07-26T14:45:57;4.30;;;2.47;;
19554;SDS011;9924;50.828;6.440;2022-07-26T14:48:24;6.07;;;2.30;;
19554;SDS011;9924;50.828;6.440;2022-07-26T14:50:49;4.05;;;2.17;;
19554;SDS011;9924;50.828;6.440;2022-07-26T14:53:15;3.35;;;1.90;;
19554;SDS011;9924;50.828;6.440;2022-07-26T14:55:42;5.45;;;2.22;;
19554;SDS011;9924;50.828;6.440;2022-07-26T14:58:07;5.97;;;2.00;;
19554;SDS011;9924;50.828;6.440;2022-07-26T15:00:33;4.57;;;2.40;;
19554;SDS011;9924;50.828;6.440;2022-07-26T15:03:00;5.15;;;2.30;;
19554;SDS011;9924;50.828;6.440;2022-07-26T15:05:26;3.15;;;1.77;;
19554;SDS011;9924;50.828;6.440;2022-07-26T15:07:52;5.47;;;2.40;;
19554;SDS011;9924;50.828;6.440;2022-07-26T15:10:17;6.28;;;2.20;;
19554;SDS011;9924;50.828;6.440;2022-07-26T15:13:00;5.15;;;2.60;;
19554;SDS011;9924;50.828;6.440;2022-07-26T15:15:27;6.82;;;2.13;;
19554;SDS011;9924;50.828;6.440;2022-07-26T15:17:53;4.72;;;1.92;;
19554;SDS011;9924;50.828;6.440;2022-07-26T15:20:20;3.50;;;2.05;;
19554;SDS011;9924;50.828;6.440;2022-07-26T15:22:48;7.38;;;2.08;;
19554;SDS011;9924;50.828;6.440;2022-07-26T15:25:14;3.28;;;1.90;;